Time,TemperatureF,DewpointF,PressureIn,WindDirection,WindDirectionDegrees,WindSpeedMPH,WindSpeedGustMPH,Humidity,HourlyPrecipIn,Conditions,Clouds,dailyrainin,SoftwareType,DateUTC
2013-05-22 00:00:00,34.0,23.0,-100.00,South,173,14.0,22.0,62,-99.99,,,-99.99,,2013-05-22 06:00:00,
2013-05-22 00:42:00,34.0,23.0,-100.00,South,173,14.0,22.0,62,-99.99,,,-99.99,,2013-05-22 06:42:00,
2013-05-22 00:52:00,34.0,23.0,-100.00,South,173,14.0,22.0,62,-99.99,,,-99.99,,2013-05-22 06:52:00,
2013-05-22 01:00:00,35.0,23.0,-100.00,South,174,15.0,23.0,60,-99.99,,,-99.99,,2013-05-22 07:00:00,
2013-05-22 01:42:00,35.0,23.0,-100.00,South,174,15.0,23.0,60,-99.99,,,-99.99,,2013-05-22 07:42:00,
2013-05-22 01:52:00,35.0,23.0,-100.00,South,174,15.0,23.0,60,-99.99,,,-99.99,,2013-05-22 07:52:00,
2013-05-22 02:00:00,35.0,20.0,-100.00,South,172,15.0,21.0,53,-99.99,,,-99.99,,2013-05-22 08:00:00,
2013-05-22 02:42:00,35.0,20.0,-100.00,South,172,15.0,21.0,53,-99.99,,,-99.99,,2013-05-22 08:42:00,
2013-05-22 02:52:00,35.0,20.0,-100.00,South,172,15.0,21.0,53,-99.99,,,-99.99,,2013-05-22 08:52:00,
2013-05-22 03:00:00,35.0,15.0,-100.00,SSE,165,10.0,16.0,43,-99.99,,,-99.99,,2013-05-22 09:00:00,
2013-05-22 03:42:00,35.0,15.0,-100.00,SSE,165,10.0,16.0,43,-99.99,,,-99.99,,2013-05-22 09:42:00,
2013-05-22 03:53:00,35.0,15.0,-100.00,SSE,165,10.0,16.0,43,-99.99,,,-99.99,,2013-05-22 09:53:00,
2013-05-22 04:00:00,35.0,12.0,-100.00,SSE,168,10.0,17.0,39,-99.99,,,-99.99,,2013-05-22 10:00:00,
2013-05-22 04:42:00,35.0,12.0,-100.00,SSE,168,10.0,17.0,39,-99.99,,,-99.99,,2013-05-22 10:42:00,
2013-05-22 04:52:00,35.0,12.0,-100.00,SSE,168,10.0,17.0,39,-99.99,,,-99.99,,2013-05-22 10:52:00,
2013-05-22 05:00:00,36.0,14.0,-100.00,South,170,11.0,22.0,40,-99.99,,,-99.99,,2013-05-22 11:00:00,
2013-05-22 05:42:00,36.0,14.0,-100.00,South,170,11.0,22.0,40,-99.99,,,-99.99,,2013-05-22 11:42:00,
2013-05-22 05:52:00,36.0,14.0,-100.00,South,170,11.0,22.0,40,-99.99,,,-99.99,,2013-05-22 11:52:00,
2013-05-22 06:00:00,35.0,14.0,-100.00,SSE,151,9.0,19.0,41,-99.99,,,-99.99,,2013-05-22 12:00:00,
2013-05-22 06:42:00,35.0,14.0,-100.00,SSE,151,9.0,19.0,41,-99.99,,,-99.99,,2013-05-22 12:42:00,
2013-05-22 06:52:00,35.0,14.0,-100.00,SSE,151,9.0,19.0,41,-99.99,,,-99.99,,2013-05-22 12:52:00,
2013-05-22 07:00:00,35.0,15.0,-100.00,SSE,152,10.0,16.0,44,-99.99,,,-99.99,,2013-05-22 13:00:00,
2013-05-22 07:42:00,35.0,15.0,-100.00,SSE,152,10.0,16.0,44,-99.99,,,-99.99,,2013-05-22 13:42:00,
2013-05-22 07:52:00,35.0,15.0,-100.00,SSE,152,10.0,16.0,44,-99.99,,,-99.99,,2013-05-22 13:52:00,
2013-05-22 08:00:00,36.0,15.0,-100.00,SE,146,10.0,20.0,42,-99.99,,,-99.99,,2013-05-22 14:00:00,
2013-05-22 08:42:00,36.0,15.0,-100.00,SE,146,10.0,20.0,42,-99.99,,,-99.99,,2013-05-22 14:42:00,
2013-05-22 08:52:00,36.0,15.0,-100.00,SE,146,10.0,20.0,42,-99.99,,,-99.99,,2013-05-22 14:52:00,
2013-05-22 09:00:00,37.0,14.0,-100.00,SSE,153,14.0,21.0,39,-99.99,,,-99.99,,2013-05-22 15:00:00,
2013-05-22 09:43:00,37.0,14.0,-100.00,SSE,153,14.0,21.0,39,-99.99,,,-99.99,,2013-05-22 15:43:00,
2013-05-22 09:53:00,37.0,14.0,-100.00,SSE,153,14.0,21.0,39,-99.99,,,-99.99,,2013-05-22 15:53:00,
2013-05-22 10:00:00,39.0,15.0,-100.00,SSE,160,16.0,26.0,38,-99.99,,,-99.99,,2013-05-22 16:00:00,
2013-05-22 10:42:00,39.0,15.0,-100.00,SSE,160,16.0,26.0,38,-99.99,,,-99.99,,2013-05-22 16:42:00,
2013-05-22 10:52:00,39.0,15.0,-100.00,SSE,160,16.0,26.0,38,-99.99,,,-99.99,,2013-05-22 16:52:00,
2013-05-22 11:00:00,41.0,16.0,-100.00,South,169,15.0,29.0,37,-99.99,,,-99.99,,2013-05-22 17:00:00,
2013-05-22 11:42:00,41.0,16.0,-100.00,South,169,15.0,29.0,37,-99.99,,,-99.99,,2013-05-22 17:42:00,
2013-05-22 11:53:00,41.0,16.0,-100.00,South,169,15.0,29.0,37,-99.99,,,-99.99,,2013-05-22 17:53:00,
2013-05-22 12:00:00,43.0,18.0,-100.00,SSW,199,11.0,23.0,35,-99.99,,,-99.99,,2013-05-22 18:00:00,
2013-05-22 12:42:00,43.0,18.0,-100.00,SSW,199,11.0,23.0,35,-99.99,,,-99.99,,2013-05-22 18:42:00,
2013-05-22 12:52:00,43.0,18.0,-100.00,SSW,199,11.0,23.0,35,-99.99,,,-99.99,,2013-05-22 18:52:00,
2013-05-22 13:00:00,45.0,18.0,-100.00,South,188,13.0,25.0,35,-99.99,,,-99.99,,2013-05-22 19:00:00,
2013-05-22 13:42:00,45.0,18.0,-100.00,South,188,13.0,25.0,35,-99.99,,,-99.99,,2013-05-22 19:42:00,
2013-05-22 13:52:00,45.0,18.0,-100.00,South,188,13.0,25.0,35,-99.99,,,-99.99,,2013-05-22 19:52:00,
2013-05-22 14:00:00,45.0,18.0,-100.00,South,184,17.0,36.0,34,-99.99,,,-99.99,,2013-05-22 20:00:00,
2013-05-22 14:42:00,45.0,18.0,-100.00,South,184,17.0,36.0,34,-99.99,,,-99.99,,2013-05-22 20:42:00,
2013-05-22 14:52:00,45.0,18.0,-100.00,South,184,17.0,36.0,34,-99.99,,,-99.99,,2013-05-22 20:52:00,
2013-05-22 15:00:00,46.0,18.0,-100.00,South,180,20.0,37.0,33,-99.99,,,-99.99,,2013-05-22 21:00:00,
2013-05-22 15:42:00,46.0,18.0,-100.00,South,180,20.0,37.0,33,-99.99,,,-99.99,,2013-05-22 21:42:00,
2013-05-22 15:53:00,46.0,18.0,-100.00,South,180,20.0,37.0,33,-99.99,,,-99.99,,2013-05-22 21:53:00,
2013-05-22 16:00:00,47.0,18.0,-100.00,South,175,20.0,32.0,31,-99.99,,,-99.99,,2013-05-22 22:00:00,
2013-05-22 16:42:00,47.0,18.0,-100.00,South,175,20.0,32.0,31,-99.99,,,-99.99,,2013-05-22 22:42:00,
2013-05-22 16:52:00,47.0,18.0,-100.00,South,175,20.0,32.0,31,-99.99,,,-99.99,,2013-05-22 22:52:00,
2013-05-22 17:00:00,48.0,16.0,-100.00,South,190,19.0,33.0,28,-99.99,,,-99.99,,2013-05-22 23:00:00,
2013-05-22 17:42:00,48.0,16.0,-100.00,South,190,19.0,33.0,28,-99.99,,,-99.99,,2013-05-22 23:42:00,
2013-05-22 17:52:00,48.0,16.0,-100.00,South,190,19.0,33.0,28,-99.99,,,-99.99,,2013-05-22 23:52:00,
2013-05-22 18:00:00,47.0,13.0,-100.00,South,182,25.0,39.0,26,-99.99,,,-99.99,,2013-05-23 00:00:00,
2013-05-22 18:42:00,47.0,13.0,-100.00,South,182,25.0,39.0,26,-99.99,,,-99.99,,2013-05-23 00:42:00,
2013-05-22 18:52:00,47.0,13.0,-100.00,South,182,25.0,39.0,26,-99.99,,,-99.99,,2013-05-23 00:52:00,
2013-05-22 19:00:00,44.0,13.0,-100.00,South,178,27.0,43.0,27,-99.99,,,-99.99,,2013-05-23 01:00:00,
2013-05-22 19:42:00,44.0,13.0,-100.00,South,178,27.0,43.0,27,-99.99,,,-99.99,,2013-05-23 01:42:00,
2013-05-22 19:52:00,44.0,13.0,-100.00,South,178,27.0,43.0,27,-99.99,,,-99.99,,2013-05-23 01:52:00,
2013-05-22 20:00:00,44.0,14.0,-100.00,South,178,25.0,39.0,30,-99.99,,,-99.99,,2013-05-23 02:00:00,
2013-05-22 21:00:00,43.0,15.0,-100.00,South,176,24.0,39.0,32,-99.99,,,-99.99,,2013-05-23 03:00:00,
2013-05-22 21:43:00,43.0,15.0,-100.00,South,176,24.0,39.0,32,-99.99,,,-99.99,,2013-05-23 03:43:00,
2013-05-22 21:53:00,43.0,15.0,-100.00,South,176,24.0,39.0,32,-99.99,,,-99.99,,2013-05-23 03:53:00,
2013-05-22 22:00:00,42.0,16.0,-100.00,South,174,28.0,53.0,35,-99.99,,,-99.99,,2013-05-23 04:00:00,
2013-05-22 22:43:00,42.0,16.0,-100.00,South,174,28.0,53.0,35,-99.99,,,-99.99,,2013-05-23 04:43:00,
2013-05-22 22:52:00,42.0,16.0,-100.00,South,174,28.0,53.0,35,-99.99,,,-99.99,,2013-05-23 04:52:00,
2013-05-22 23:00:00,42.0,15.0,-100.00,SSE,163,24.0,37.0,34,-99.99,,,-99.99,,2013-05-23 05:00:00,
2013-05-22 23:43:00,42.0,15.0,-100.00,SSE,163,24.0,37.0,34,-99.99,,,-99.99,,2013-05-23 05:43:00,
2013-05-22 23:52:00,42.0,15.0,-100.00,SSE,163,24.0,37.0,34,-99.99,,,-99.99,,2013-05-23 05:52:00,